Aérodrome :
LOGIN :

S'inscrire | Disclaimer

   EN    FR    IT 

 










Légende :    VFR   VFR Marginal   IFR   IFR Intensif   IFR Très Intensif
Visi : 
Plafond : 
>= 8 km
>= 3000ft
5 à 8 km
1000 à 3000 ft
1500m à 5 km
500 à 1000 ft
800 à 1500m
200 à 500 ft
< 800m
< 200 ft
Symboles :   Orages  Brouillard  Fortes neiges  Fortes précipitations  Vent > 20 kt
SIGMETs :   Divers  Orages  Givrage  Turbulence  Onde Orograph.  Cendres Volcan.






- Altitude de l'aérodrome : 17 ft
- Code IATA : KLR


ESMQ - Kalmar

DERNIER METAR :
  • 210050Z AUTO 18016KT 6000 -RA FEW007/// BKN008/// OVC011/// 06/05 Q0999 RERA

METARs EXPIRÉS :
  • 210020Z AUTO 18017KT 5000 BR FEW006/// OVC007/// 05/05 Q0999 RERA
  • 202350Z AUTO 18017KT 6000 BR BKN007/// OVC010/// 06/05 Q1000 RERA
  • 202320Z AUTO 18017KT 5000 BR FEW006/// BKN007/// OVC009/// 05/05 Q1000
  • 202250Z AUTO 18017KT 4700 DZ FEW005/// SCT007/// OVC009/// 05/05 Q1001
  • 202220Z 18014KT 8000 -DZ BKN007 06/05 Q1001

Prévision TAF périmée.



MET'MAP, la Météo Aéronautique d'un coup d'oeil ! - Copyright ORBIFLY Décembre 2007 - Disclaimer

ORBIFLY MET'MAP TEAM :

Programmation & Développement : Alexandra Zaïnal
Sur une idée originale de : Baudouin d'Aumeries
Assistance à la programmation : Marc-Olivier Méhu
Soutien technique & logistique : Manuel Goepfert

Contact : metmap@orbifly.com




SOURCES & CREDITS :

   NOAA